Time;durP1;ratioP1;P1;durP2;ratioP2;P2;SDS_P1;SDS_P2;PMS_P1;PMS_P2;Temp;Humidity;BMP_temperature;BMP_pressure;BME280_temperature;BME280_humidity;BME280_pressure;Samples;Min_cycle;Max_cycle;Signal;HPM_P1;HPM_P2
2021/03/03 00:02:17;;;;;;;209.25;99.60;;;3.80;99.90;;;;;;5058884;28;20218;-72
2021/03/03 00:04:43;;;;;;;203.85;109.53;;;3.80;99.90;;;;;;5060744;28;20213;-72
2021/03/03 00:07:10;;;;;;;214.02;107.78;;;3.90;99.90;;;;;;5057662;28;20216;-71
2021/03/03 00:09:37;;;;;;;242.90;117.18;;;3.90;99.90;;;;;;5060032;28;20373;-71
2021/03/03 00:12:04;;;;;;;221.93;111.53;;;3.90;99.90;;;;;;5060205;28;20224;-71
2021/03/03 00:14:31;;;;;;;293.83;129.82;;;3.90;99.90;;;;;;5060013;28;20277;-71
2021/03/03 00:16:57;;;;;;;254.15;126.55;;;3.90;99.90;;;;;;5060512;28;20449;-73
2021/03/03 00:19:24;;;;;;;249.45;130.95;;;3.90;99.90;;;;;;5063832;28;20209;-74
2021/03/03 00:21:51;;;;;;;234.48;119.43;;;4.00;99.90;;;;;;5058842;28;20217;-71
2021/03/03 00:24:17;;;;;;;264.58;132.00;;;3.90;99.90;;;;;;5059998;28;20514;-71
2021/03/03 00:26:44;;;;;;;243.48;123.65;;;4.00;99.90;;;;;;5063159;28;20221;-71
2021/03/03 00:29:10;;;;;;;256.10;126.90;;;4.00;99.90;;;;;;5060033;28;20198;-72
2021/03/03 00:31:37;;;;;;;249.40;126.88;;;4.00;99.90;;;;;;5059805;28;20448;-72
2021/03/03 00:34:03;;;;;;;210.85;115.90;;;3.90;99.90;;;;;;5058383;28;20197;-72
2021/03/03 00:36:30;;;;;;;202.18;109.82;;;4.00;99.90;;;;;;5059698;28;20243;-72
2021/03/03 00:38:57;;;;;;;205.25;110.90;;;4.00;99.90;;;;;;5060190;28;20211;-72
2021/03/03 00:41:23;;;;;;;208.23;110.55;;;3.80;99.90;;;;;;5059175;28;20456;-72
2021/03/03 00:43:49;;;;;;;225.00;121.80;;;3.60;99.90;;;;;;5059750;28;20255;-73
2021/03/03 00:46:16;;;;;;;274.20;127.15;;;3.60;99.90;;;;;;5059889;28;21638;-71
2021/03/03 00:48:43;;;;;;;243.57;126.53;;;3.70;99.90;;;;;;5057548;28;20723;-71
2021/03/03 00:51:09;;;;;;;275.10;136.68;;;3.70;99.90;;;;;;5059673;28;20245;-71
2021/03/03 00:53:36;;;;;;;197.95;104.63;;;3.60;99.90;;;;;;5059165;28;20243;-71
2021/03/03 00:56:03;;;;;;;256.40;127.25;;;3.60;99.90;;;;;;5058567;28;20238;-72
2021/03/03 00:58:29;;;;;;;243.35;120.32;;;3.60;99.90;;;;;;5058498;28;20216;-71
2021/03/03 01:00:57;;;;;;;275.20;128.93;;;3.60;99.90;;;;;;5059587;28;20228;-72
2021/03/03 01:03:25;;;;;;;266.25;122.43;;;3.70;99.90;;;;;;5058873;28;20235;-70
2021/03/03 01:05:51;;;;;;;245.07;129.45;;;3.70;99.90;;;;;;5059429;28;20279;-72
2021/03/03 01:08:18;;;;;;;257.02;127.75;;;3.70;99.90;;;;;;5059100;28;20209;-72
2021/03/03 01:10:45;;;;;;;213.90;112.95;;;3.70;99.90;;;;;;5058489;28;20211;-72
2021/03/03 01:13:12;;;;;;;243.95;126.88;;;3.70;99.90;;;;;;5059165;28;20241;-72
2021/03/03 01:15:39;;;;;;;214.57;118.90;;;3.70;99.90;;;;;;5058692;28;20238;-71
2021/03/03 01:18:05;;;;;;;222.65;112.88;;;3.60;99.90;;;;;;5055932;28;20268;-71
2021/03/03 01:20:32;;;;;;;246.85;121.53;;;3.60;99.90;;;;;;5058363;28;20255;-70
2021/03/03 01:22:59;;;;;;;222.38;116.10;;;3.50;99.90;;;;;;5059147;28;20212;-71
2021/03/03 01:25:26;;;;;;;218.35;114.47;;;3.50;99.90;;;;;;5058243;28;20213;-71
2021/03/03 01:27:52;;;;;;;196.32;97.30;;;3.30;99.90;;;;;;5058877;28;20203;-70
2021/03/03 01:30:19;;;;;;;197.80;103.03;;;3.20;99.90;;;;;;5058081;28;20620;-70
2021/03/03 01:32:46;;;;;;;187.57;102.25;;;2.90;99.90;;;;;;5058918;28;20553;-70
2021/03/03 01:35:14;;;;;;;206.10;111.85;;;3.10;99.90;;;;;;5057113;28;20205;-71
2021/03/03 01:37:40;;;;;;;263.40;123.55;;;2.90;99.90;;;;;;5058691;28;20208;-72
2021/03/03 01:40:08;;;;;;;271.17;128.95;;;3.10;99.90;;;;;;5057864;28;20204;-71
2021/03/03 01:42:35;;;;;;;267.77;135.00;;;3.00;99.90;;;;;;5058463;28;20510;-71
2021/03/03 01:45:02;;;;;;;267.85;135.73;;;3.20;99.90;;;;;;5058197;28;20235;-72
2021/03/03 01:47:28;;;;;;;293.30;136.05;;;3.20;99.90;;;;;;5058362;28;20215;-71
2021/03/03 01:49:55;;;;;;;278.70;135.68;;;3.10;99.90;;;;;;5058370;28;20246;-71
2021/03/03 01:52:23;;;;;;;296.60;144.80;;;3.30;99.90;;;;;;5058795;28;20495;-73
2021/03/03 01:54:50;;;;;;;288.45;138.93;;;3.20;99.90;;;;;;5057927;28;20209;-70
2021/03/03 01:57:17;;;;;;;339.13;153.23;;;3.30;99.90;;;;;;5058079;28;20227;-72
2021/03/03 01:59:43;;;;;;;315.98;149.88;;;3.20;99.90;;;;;;5058377;28;20212;-71
2021/03/03 02:02:10;;;;;;;306.10;149.80;;;3.20;99.90;;;;;;5057760;28;20208;-70
2021/03/03 02:04:37;;;;;;;320.13;156.77;;;3.20;99.90;;;;;;5057894;28;20207;-72
2021/03/03 02:07:06;;;;;;;349.88;159.77;;;3.10;99.90;;;;;;5057952;28;20208;-72
2021/03/03 02:09:43;;;;;;;267.77;146.70;;;3.10;99.90;;;;;;5062307;28;20518;-71
2021/03/03 02:12:22;;;;;;;260.25;140.20;;;3.10;99.90;;;;;;5062177;28;20248;-71
2021/03/03 02:14:53;;;;;;;265.25;137.93;;;3.00;99.90;;;;;;5051957;28;20211;-71
2021/03/03 02:17:23;;;;;;;318.15;154.38;;;3.20;99.90;;;;;;5053938;28;20508;-72
2021/03/03 02:19:51;;;;;;;328.95;156.27;;;3.10;99.90;;;;;;5057696;28;20231;-71
2021/03/03 02:22:17;;;;;;;301.92;156.57;;;3.20;99.90;;;;;;5056935;28;20211;-71
2021/03/03 02:24:56;;;;;;;339.17;160.30;;;3.20;99.90;;;;;;5058598;28;20209;-71
2021/03/03 02:27:24;;;;;;;312.58;152.88;;;3.20;99.90;;;;;;5057265;28;20565;-70
2021/03/03 02:29:51;;;;;;;328.27;165.52;;;3.20;99.90;;;;;;5060578;28;20218;-72
2021/03/03 02:32:19;;;;;;;316.58;152.70;;;3.20;99.90;;;;;;5057088;28;20236;-71
2021/03/03 02:34:47;;;;;;;270.80;143.48;;;3.30;99.90;;;;;;5056849;28;20231;-72
2021/03/03 02:37:14;;;;;;;256.75;135.63;;;3.30;99.90;;;;;;5056258;28;20235;-72
2021/03/03 02:39:41;;;;;;;244.20;127.13;;;3.30;99.90;;;;;;5061177;28;20419;-72
2021/03/03 02:42:09;;;;;;;228.98;115.88;;;3.20;99.90;;;;;;5055380;28;20208;-73
2021/03/03 02:44:38;;;;;;;228.73;119.40;;;3.10;99.90;;;;;;5054884;28;20204;-71
2021/03/03 02:47:05;;;;;;;263.95;130.77;;;2.90;99.90;;;;;;5051589;28;20215;-75
2021/03/03 02:49:33;;;;;;;269.85;134.77;;;2.80;99.90;;;;;;5049811;28;20208;-74
2021/03/03 02:51:59;;;;;;;391.08;183.05;;;2.70;99.90;;;;;;5060439;28;20682;-73
2021/03/03 02:54:26;;;;;;;244.00;127.50;;;2.70;99.90;;;;;;5057260;28;20564;-72
2021/03/03 02:56:52;;;;;;;246.30;123.50;;;2.70;99.90;;;;;;5057038;28;20238;-72
2021/03/03 02:59:32;;;;;;;271.08;134.52;;;2.70;99.90;;;;;;5057159;28;20211;-73
2021/03/03 03:02:02;;;;;;;455.13;188.30;;;2.70;99.90;;;;;;5050152;28;20271;-74
2021/03/03 03:04:33;;;;;;;344.17;163.23;;;2.70;99.90;;;;;;5057397;28;20224;-72
2021/03/03 03:07:05;;;;;;;291.27;136.82;;;2.70;99.90;;;;;;5057317;28;20200;-74
2021/03/03 03:09:33;;;;;;;253.73;129.65;;;2.70;99.90;;;;;;5053644;28;20207;-73
2021/03/03 03:12:02;;;;;;;269.30;134.65;;;2.70;99.90;;;;;;5055151;28;20196;-75
2021/03/03 03:14:30;;;;;;;281.45;133.32;;;2.70;99.90;;;;;;5057069;28;20212;-72
2021/03/03 03:16:59;;;;;;;302.88;142.63;;;2.70;99.90;;;;;;5056464;28;20223;-73
2021/03/03 03:19:39;;;;;;;342.52;154.85;;;2.70;99.90;;;;;;5056629;28;20321;-73
2021/03/03 03:22:09;;;;;;;341.70;160.88;;;2.50;99.90;;;;;;5056469;28;20211;-73
2021/03/03 03:24:38;;;;;;;350.88;155.20;;;2.80;99.90;;;;;;5059011;28;20208;-74
2021/03/03 03:27:05;;;;;;;361.75;164.80;;;2.70;99.90;;;;;;5056395;28;20211;-74
2021/03/03 03:29:33;;;;;;;361.17;159.63;;;2.70;99.90;;;;;;5056906;28;20207;-73
2021/03/03 03:32:20;;;;;;;357.75;155.45;;;2.80;99.90;;;;;;5056278;28;21387;-75
2021/03/03 03:34:47;;;;;;;313.25;147.57;;;2.90;99.90;;;;;;5055512;28;20207;-73
2021/03/03 03:37:15;;;;;;;320.95;148.48;;;2.90;99.90;;;;;;5056979;28;20262;-74
2021/03/03 03:39:41;;;;;;;337.67;156.05;;;2.90;99.90;;;;;;5055622;28;20238;-74
2021/03/03 03:42:09;;;;;;;287.65;143.98;;;2.90;99.90;;;;;;5057407;28;20213;-74
2021/03/03 03:44:35;;;;;;;236.85;125.28;;;2.90;99.90;;;;;;5056920;28;20281;-72
2021/03/03 03:47:03;;;;;;;212.02;120.10;;;2.60;99.90;;;;;;5053706;28;20218;-72
2021/03/03 03:49:31;;;;;;;206.73;119.60;;;2.40;99.90;;;;;;5045861;28;20207;-71
2021/03/03 03:51:58;;;;;;;265.50;134.93;;;2.30;99.90;;;;;;5056071;28;20501;-72
2021/03/03 03:54:24;;;;;;;285.50;135.52;;;2.30;99.90;;;;;;5056671;28;20214;-73
2021/03/03 03:56:51;;;;;;;290.45;140.15;;;2.20;99.90;;;;;;5055745;28;20250;-73
2021/03/03 03:59:17;;;;;;;292.15;135.65;;;2.20;99.90;;;;;;5051407;28;20261;-72
2021/03/03 04:01:44;;;;;;;296.38;139.93;;;2.30;99.90;;;;;;5059526;28;20206;-72
2021/03/03 04:04:11;;;;;;;269.25;138.73;;;2.40;99.90;;;;;;5054009;28;20267;-71
2021/03/03 04:06:37;;;;;;;320.48;143.50;;;2.40;99.90;;;;;;5046318;28;20216;-73
2021/03/03 04:09:04;;;;;;;359.30;151.15;;;2.40;99.90;;;;;;5054782;28;20223;-72
2021/03/03 04:11:31;;;;;;;370.77;161.23;;;2.40;99.90;;;;;;5054800;28;20207;-71
2021/03/03 04:13:57;;;;;;;341.80;152.73;;;2.40;99.90;;;;;;5056722;28;20236;-71
2021/03/03 04:16:24;;;;;;;378.10;158.73;;;2.40;99.90;;;;;;5055535;28;20223;-71
2021/03/03 04:18:50;;;;;;;362.13;164.98;;;2.80;99.90;;;;;;5062123;28;20216;-72
2021/03/03 04:21:17;;;;;;;380.42;171.63;;;2.50;99.90;;;;;;5062168;28;20204;-70
2021/03/03 04:23:43;;;;;;;419.33;176.13;;;2.50;99.90;;;;;;5054792;28;20261;-71
2021/03/03 04:26:10;;;;;;;344.88;159.75;;;2.50;99.90;;;;;;5063447;28;20215;-71
2021/03/03 04:28:37;;;;;;;266.50;142.02;;;2.50;99.90;;;;;;5066162;28;20229;-72
2021/03/03 04:31:03;;;;;;;225.02;129.40;;;2.40;99.90;;;;;;5071366;28;20203;-71
2021/03/03 04:33:32;;;;;;;272.77;136.15;;;2.20;99.90;;;;;;5059483;28;20210;-72
2021/03/03 04:35:58;;;;;;;254.88;134.43;;;2.00;99.90;;;;;;5059454;28;20231;-71
2021/03/03 04:38:25;;;;;;;310.75;142.43;;;2.10;99.90;;;;;;5054747;28;20514;-71
2021/03/03 04:40:51;;;;;;;296.80;143.75;;;2.10;99.90;;;;;;5056008;28;20216;-72
2021/03/03 04:43:18;;;;;;;285.17;141.43;;;2.20;99.90;;;;;;5059802;28;20500;-71
2021/03/03 04:45:44;;;;;;;350.90;150.57;;;2.20;99.90;;;;;;5057508;28;20208;-71
2021/03/03 04:48:12;;;;;;;323.23;151.15;;;2.30;99.90;;;;;;5065345;28;20515;-71
2021/03/03 04:50:39;;;;;;;306.48;142.00;;;2.20;99.90;;;;;;5059133;28;20522;-72
2021/03/03 04:53:06;;;;;;;366.70;155.93;;;2.30;99.90;;;;;;5059852;28;20219;-71
2021/03/03 04:55:32;;;;;;;293.05;143.95;;;2.20;99.90;;;;;;5058750;28;20261;-72
2021/03/03 04:57:59;;;;;;;302.48;147.68;;;2.20;99.90;;;;;;5059483;28;20211;-71
2021/03/03 05:00:26;;;;;;;256.90;129.93;;;2.20;99.90;;;;;;5058683;28;20207;-71
2021/03/03 05:02:52;;;;;;;235.75;129.73;;;2.20;99.90;;;;;;5059120;28;20367;-71
2021/03/03 05:05:19;;;;;;;261.00;133.40;;;2.20;99.90;;;;;;5058784;28;20577;-70
2021/03/03 05:07:46;;;;;;;293.73;132.80;;;2.20;99.90;;;;;;5059070;28;20211;-69
2021/03/03 05:10:13;;;;;;;274.83;138.93;;;2.20;99.90;;;;;;5059256;28;20379;-70
2021/03/03 05:12:39;;;;;;;262.77;133.18;;;2.20;99.90;;;;;;5058509;28;20243;-69
2021/03/03 05:15:07;;;;;;;282.52;144.10;;;2.40;99.90;;;;;;5059376;28;20211;-69
2021/03/03 05:17:33;;;;;;;251.27;133.27;;;2.20;99.90;;;;;;5058595;28;20449;-68
2021/03/03 05:20:00;;;;;;;252.27;135.75;;;2.10;99.90;;;;;;5056647;28;20560;-69
2021/03/03 05:22:27;;;;;;;252.38;135.95;;;1.80;99.90;;;;;;5058566;28;20510;-69
2021/03/03 05:24:53;;;;;;;248.07;131.73;;;1.90;99.90;;;;;;5059494;28;20199;-69
2021/03/03 05:27:20;;;;;;;242.80;127.88;;;1.90;99.90;;;;;;5057248;28;20211;-68
2021/03/03 05:29:46;;;;;;;241.43;121.07;;;2.10;99.90;;;;;;5058877;28;20211;-67
2021/03/03 05:32:13;;;;;;;253.52;129.00;;;1.90;99.90;;;;;;5058355;28;20258;-68
2021/03/03 05:34:40;;;;;;;275.98;133.80;;;1.90;99.90;;;;;;5058171;28;20208;-69
2021/03/03 05:37:06;;;;;;;272.60;136.30;;;1.90;99.90;;;;;;5058948;28;20754;-69
2021/03/03 05:39:33;;;;;;;294.63;141.80;;;1.90;99.90;;;;;;5058339;28;20204;-69
2021/03/03 05:42:01;;;;;;;246.98;132.80;;;1.90;99.90;;;;;;5058990;28;20208;-70
2021/03/03 05:44:28;;;;;;;377.85;158.70;;;0.90;99.90;;;;;;5058479;28;20215;-70
2021/03/03 05:46:58;;;;;;;375.58;171.57;;;1.70;99.90;;;;;;5057548;28;20208;-69
2021/03/03 05:49:26;;;;;;;336.35;157.88;;;1.60;99.90;;;;;;5058000;28;20214;-68
2021/03/03 05:51:54;;;;;;;316.42;160.90;;;1.50;99.90;;;;;;5058009;28;20207;-69
2021/03/03 05:54:21;;;;;;;311.98;154.63;;;1.70;99.90;;;;;;5057957;28;20485;-68
2021/03/03 05:56:49;;;;;;;314.98;156.25;;;1.90;99.90;;;;;;5057957;28;20229;-68
2021/03/03 05:59:16;;;;;;;297.98;158.52;;;2.00;99.90;;;;;;5058542;28;20222;-69
2021/03/03 06:01:45;;;;;;;257.65;138.82;;;2.00;99.90;;;;;;5057742;28;20242;-70
2021/03/03 06:04:20;;;;;;;258.80;134.40;;;2.10;99.90;;;;;;5045320;28;20290;-68
2021/03/03 06:06:47;;;;;;;269.30;138.27;;;2.10;99.90;;;;;;5058238;28;20218;-70
2021/03/03 06:09:14;;;;;;;261.13;132.80;;;2.20;99.90;;;;;;5057968;28;20207;-71
2021/03/03 06:11:40;;;;;;;249.98;124.60;;;2.30;99.90;;;;;;5058029;28;20212;-68
2021/03/03 06:14:07;;;;;;;225.50;125.38;;;2.20;99.90;;;;;;5057290;28;20429;-68
2021/03/03 06:16:34;;;;;;;249.55;131.85;;;2.30;99.90;;;;;;5056318;28;20798;-68
2021/03/03 06:19:01;;;;;;;262.10;135.75;;;2.40;99.90;;;;;;5057779;28;20290;-69
2021/03/03 06:21:30;;;;;;;243.52;127.03;;;2.50;99.90;;;;;;5056812;28;20210;-70
2021/03/03 06:24:02;;;;;;;228.25;129.75;;;2.50;99.90;;;;;;5057904;28;20208;-69
2021/03/03 06:26:29;;;;;;;266.00;141.00;;;2.60;99.90;;;;;;5056986;28;20409;-70
2021/03/03 06:28:56;;;;;;;278.48;148.93;;;2.60;99.90;;;;;;5056997;28;20211;-69
2021/03/03 06:31:33;;;;;;;250.05;138.40;;;2.80;99.90;;;;;;5050648;28;20231;-70
2021/03/03 06:34:19;;;;;;;212.70;127.32;;;3.10;99.90;;;;;;5054315;28;20203;-71
2021/03/03 06:36:59;;;;;;;179.52;107.22;;;3.40;99.90;;;;;;5057746;28;20525;-72
2021/03/03 06:39:32;;;;;;;191.63;105.70;;;3.90;99.90;;;;;;5056747;28;20221;-74
2021/03/03 06:42:00;;;;;;;143.93;91.00;;;4.20;99.90;;;;;;5057146;28;20281;-75
2021/03/03 06:44:46;;;;;;;155.88;86.72;;;4.40;99.90;;;;;;5057419;28;20217;-76
2021/03/03 06:47:12;;;;;;;131.15;81.28;;;4.70;99.90;;;;;;5056022;28;20408;-75
2021/03/03 06:49:40;;;;;;;142.38;84.50;;;4.80;99.90;;;;;;5056695;28;20333;-76
2021/03/03 06:52:07;;;;;;;134.20;81.00;;;4.90;99.90;;;;;;5056686;28;20207;-74
2021/03/03 06:54:34;;;;;;;135.35;75.72;;;5.90;99.90;;;;;;5026494;28;20308;-76
2021/03/03 06:57:05;;;;;;;129.38;78.95;;;5.30;99.90;;;;;;5024525;28;20233;-75
2021/03/03 06:59:33;;;;;;;124.38;74.57;;;5.40;99.90;;;;;;5043605;28;20234;-75
2021/03/03 07:02:08;;;;;;;144.80;82.05;;;5.50;99.90;;;;;;5047484;28;20245;-73
2021/03/03 07:04:37;;;;;;;132.25;79.35;;;5.50;99.90;;;;;;5056599;28;20434;-73
2021/03/03 07:07:11;;;;;;;145.48;87.68;;;5.50;99.90;;;;;;5056420;28;20199;-74
2021/03/03 07:09:46;;;;;;;143.75;83.47;;;5.80;99.90;;;;;;5055741;28;20219;-72
2021/03/03 07:12:18;;;;;;;133.63;83.63;;;6.10;99.90;;;;;;5050887;28;20238;-72
2021/03/03 07:15:05;;;;;;;134.50;80.15;;;6.40;99.90;;;;;;5054299;28;20215;-74
2021/03/03 07:17:42;;;;;;;120.57;72.68;;;6.80;99.90;;;;;;5051147;28;20227;-72
2021/03/03 07:20:11;;;;;;;119.40;68.60;;;7.30;99.70;;;;;;5053166;28;20584;-72
2021/03/03 07:22:39;;;;;;;120.30;68.03;;;7.70;97.80;;;;;;5061690;28;20204;-73
2021/03/03 07:25:08;;;;;;;111.53;67.68;;;8.30;98.30;;;;;;5053390;28;20223;-74
2021/03/03 07:27:37;;;;;;;110.68;67.45;;;8.50;96.40;;;;;;5061352;28;20212;-74
2021/03/03 07:30:17;;;;;;;109.05;71.45;;;9.00;92.20;;;;;;5057063;28;20215;-71
2021/03/03 07:32:44;;;;;;;102.28;64.78;;;9.00;91.40;;;;;;5053856;28;20197;-72
2021/03/03 07:35:27;;;;;;;105.57;67.97;;;9.00;87.00;;;;;;5056255;28;20205;-72
2021/03/03 07:37:56;;;;;;;106.57;68.82;;;9.80;87.30;;;;;;5061064;28;20268;-72
2021/03/03 07:40:28;;;;;;;91.75;62.78;;;10.70;82.10;;;;;;5068008;28;20216;-73
2021/03/03 07:42:56;;;;;;;101.60;68.65;;;11.60;76.60;;;;;;5056405;28;20393;-73
2021/03/03 07:45:34;;;;;;;91.78;64.10;;;12.30;72.10;;;;;;5053089;28;20297;-73
2021/03/03 07:48:04;;;;;;;95.57;62.33;;;13.50;66.10;;;;;;5055277;28;20226;-74
2021/03/03 07:50:31;;;;;;;101.57;67.57;;;13.80;63.80;;;;;;5054681;28;20415;-72
2021/03/03 07:52:57;;;;;;;90.32;64.38;;;13.80;64.60;;;;;;5045195;28;20487;-72
2021/03/03 07:55:25;;;;;;;90.35;62.10;;;14.20;62.10;;;;;;5053982;28;20211;-72
2021/03/03 07:57:53;;;;;;;102.23;66.47;;;15.00;60.50;;;;;;5073882;28;20299;-72
2021/03/03 08:00:25;;;;;;;98.63;66.03;;;15.80;57.20;;;;;;5046106;28;20457;-73
2021/03/03 08:03:00;;;;;;;100.03;70.27;;;16.60;55.20;;;;;;5045540;28;20812;-72
2021/03/03 08:05:54;;;;;;;96.60;69.60;;;16.80;55.10;;;;;;5058292;28;20427;-73
2021/03/03 08:08:26;;;;;;;97.53;68.13;;;17.50;54.10;;;;;;5059557;28;20415;-73
2021/03/03 08:11:00;;;;;;;104.53;69.53;;;18.20;50.90;;;;;;5054623;28;20441;-73
2021/03/03 08:13:31;;;;;;;97.37;70.47;;;18.10;49.70;;;;;;5065367;28;20481;-76
2021/03/03 08:16:00;;;;;;;105.47;77.30;;;17.90;50.10;;;;;;5059834;28;20620;-75
2021/03/03 08:18:34;;;;;;;90.00;66.10;;;18.40;49.80;;;;;;5065485;28;20456;-74
2021/03/03 08:21:07;;;;;;;97.87;69.53;;;18.20;48.10;;;;;;5061870;28;20415;-75
2021/03/03 08:23:34;;;;;;;100.43;65.97;;;17.70;50.00;;;;;;5064434;28;20426;-75
2021/03/03 08:26:16;;;;;;;102.17;70.70;;;18.60;49.90;;;;;;5069470;28;20422;-75
2021/03/03 08:28:54;;;;;;;94.23;71.97;;;18.90;47.90;;;;;;5067650;28;20469;-75
2021/03/03 08:31:24;;;;;;;95.00;70.43;;;18.70;48.50;;;;;;5069351;28;20772;-73
2021/03/03 08:33:54;;;;;;;107.13;71.07;;;19.20;48.20;;;;;;5064463;28;20432;-74
2021/03/03 08:36:21;;;;;;;101.40;72.87;;;19.30;47.50;;;;;;5060877;28;20454;-75
2021/03/03 08:38:56;;;;;;;111.20;77.07;;;19.00;47.60;;;;;;5061887;28;20445;-76
2021/03/03 08:41:30;;;;;;;88.53;65.73;;;19.70;45.80;;;;;;5058281;28;20440;-74
2021/03/03 08:44:04;;;;;;;98.90;67.43;;;21.40;43.70;;;;;;5066717;28;20437;-74
2021/03/03 08:46:30;;;;;;;85.40;64.33;;;22.50;41.00;;;;;;5058537;28;20427;-75
2021/03/03 08:48:59;;;;;;;93.90;69.40;;;23.70;40.40;;;;;;5058056;28;20480;-75
2021/03/03 08:51:29;;;;;;;97.63;68.27;;;23.50;38.40;;;;;;5059012;28;20500;-74
2021/03/03 08:53:57;;;;;;;87.30;67.17;;;24.00;37.60;;;;;;5058970;28;20996;-74
2021/03/03 08:56:46;;;;;;;83.80;61.10;;;23.80;37.60;;;;;;5058988;28;20541;-74
2021/03/03 08:59:14;;;;;;;89.37;63.47;;;23.20;37.10;;;;;;5055352;28;20547;-74
2021/03/03 09:01:50;;;;;;;89.30;65.20;;;23.20;38.70;;;;;;5056056;28;20781;-76
2021/03/03 09:04:18;;;;;;;87.43;64.93;;;23.30;39.20;;;;;;5053685;28;20522;-74
2021/03/03 09:06:50;;;;;;;86.17;66.93;;;23.20;39.50;;;;;;5059181;28;20426;-75
2021/03/03 09:09:19;;;;;;;93.93;68.70;;;23.10;39.10;;;;;;5051238;28;20423;-73
2021/03/03 09:11:46;;;;;;;85.60;64.37;;;22.70;39.40;;;;;;5069547;28;20844;-74
2021/03/03 09:14:13;;;;;;;87.47;65.93;;;23.10;39.60;;;;;;5058179;28;20493;-75
2021/03/03 09:16:57;;;;;;;81.57;63.07;;;22.80;40.10;;;;;;5067700;28;20483;-74
2021/03/03 09:19:25;;;;;;;92.37;66.93;;;22.90;40.70;;;;;;5060371;28;20488;-75
2021/03/03 09:21:52;;;;;;;84.63;64.50;;;22.60;40.10;;;;;;5057434;28;20638;-74
2021/03/03 09:24:19;;;;;;;85.13;64.20;;;22.50;40.30;;;;;;5044186;28;20620;-74
2021/03/03 09:26:46;;;;;;;81.07;62.30;;;22.60;40.60;;;;;;5052453;28;20493;-74
2021/03/03 09:29:28;;;;;;;90.20;64.70;;;22.50;40.30;;;;;;5061225;28;20461;-73
2021/03/03 09:31:54;;;;;;;82.60;61.03;;;21.90;41.50;;;;;;5055370;28;20703;-74
2021/03/03 09:34:22;;;;;;;92.53;64.17;;;19.00;47.90;;;;;;5056530;28;21000;-76
2021/03/03 09:37:00;;;;;;;76.50;57.50;;;16.80;54.10;;;;;;5056950;28;20538;-76
2021/03/03 09:39:28;;;;;;;76.20;55.10;;;14.80;60.60;;;;;;5056654;28;20534;-74
2021/03/03 09:42:04;;;;;;;72.57;55.23;;;13.80;66.90;;;;;;5057724;28;20439;-74
2021/03/03 09:44:54;;;;;;;76.37;50.60;;;13.30;69.90;;;;;;5057177;28;20448;-73
2021/03/03 09:47:27;;;;;;;61.47;44.40;;;13.30;68.70;;;;;;5056249;28;20609;-74
2021/03/03 09:49:58;;;;;;;63.78;44.17;;;12.90;70.60;;;;;;5053807;28;20217;-74
2021/03/03 09:52:34;;;;;;;67.63;47.33;;;12.40;74.40;;;;;;5057145;28;20220;-75
2021/03/03 09:55:02;;;;;;;60.30;41.95;;;12.30;75.00;;;;;;5072469;28;20429;-76
2021/03/03 09:57:29;;;;;;;64.82;45.88;;;12.30;75.00;;;;;;5061791;28;20267;-75
2021/03/03 09:59:57;;;;;;;69.57;46.88;;;12.20;75.90;;;;;;5064680;28;21247;-75
2021/03/03 10:02:28;;;;;;;57.13;40.83;;;12.00;76.50;;;;;;5060926;28;20215;-74
2021/03/03 10:04:55;;;;;;;55.70;41.80;;;12.00;77.00;;;;;;5055668;28;20204;-75
2021/03/03 10:07:24;;;;;;;71.03;42.22;;;12.00;77.00;;;;;;5057957;28;20286;-74
2021/03/03 10:09:56;;;;;;;57.40;39.95;;;12.00;76.40;;;;;;5057651;28;20294;-75
2021/03/03 10:12:25;;;;;;;63.20;39.50;;;12.00;77.10;;;;;;5049318;28;20238;-74
2021/03/03 10:15:05;;;;;;;56.30;38.70;;;11.70;77.00;;;;;;5054911;28;20267;-75
2021/03/03 10:17:32;;;;;;;57.95;39.28;;;11.70;77.90;;;;;;5057570;28;20231;-75
2021/03/03 10:20:04;;;;;;;52.90;37.28;;;11.70;78.00;;;;;;5049159;28;20231;-76
2021/03/03 10:22:34;;;;;;;56.58;36.35;;;11.80;77.40;;;;;;5058100;28;20199;-76
2021/03/03 10:25:06;;;;;;;50.97;38.08;;;11.80;76.90;;;;;;5065919;28;20203;-76
2021/03/03 10:27:39;;;;;;;48.95;36.45;;;11.90;76.40;;;;;;5057337;28;20208;-76
2021/03/03 10:30:29;;;;;;;54.00;36.80;;;12.00;76.80;;;;;;5065526;28;20595;-75
2021/03/03 10:32:56;;;;;;;42.15;31.27;;;12.10;75.50;;;;;;5056435;28;20208;-76
2021/03/03 10:35:26;;;;;;;45.08;31.05;;;12.20;74.40;;;;;;5057170;28;20229;-76
2021/03/03 10:38:08;;;;;;;46.38;33.10;;;12.30;73.60;;;;;;5054590;28;20251;-76
2021/03/03 10:40:44;;;;;;;49.75;36.53;;;11.60;71.40;;;;;;5057206;28;20208;-75
2021/03/03 10:43:23;;;;;;;46.95;32.95;;;12.50;72.70;;;;;;5057369;28;20205;-77
2021/03/03 10:46:13;;;;;;;50.17;31.67;;;12.60;73.10;;;;;;5060486;28;20215;-75
2021/03/03 10:48:48;;;;;;;45.30;31.05;;;12.60;72.10;;;;;;5054660;28;20211;-73
2021/03/03 10:51:34;;;;;;;44.10;32.30;;;12.60;70.60;;;;;;5067162;28;20589;-75
2021/03/03 10:54:08;;;;;;;46.13;32.50;;;12.50;73.40;;;;;;5066038;28;20275;-76
2021/03/03 10:56:47;;;;;;;49.15;35.55;;;12.60;74.10;;;;;;5058686;28;20298;-74
2021/03/03 10:59:26;;;;;;;46.22;33.13;;;12.60;74.10;;;;;;5067057;28;20271;-77
2021/03/03 11:01:57;;;;;;;55.60;37.13;;;12.70;73.20;;;;;;5056129;28;20207;-74
2021/03/03 11:04:47;;;;;;;44.17;32.40;;;12.70;72.10;;;;;;5056614;28;20235;-75
2021/03/03 11:07:17;;;;;;;48.38;33.92;;;12.90;72.50;;;;;;5055940;28;20234;-75
2021/03/03 11:09:52;;;;;;;45.72;32.65;;;12.90;72.50;;;;;;5055114;28;20203;-73
2021/03/03 11:12:27;;;;;;;45.70;33.40;;;13.10;72.20;;;;;;5056201;28;20251;-75
2021/03/03 11:14:54;;;;;;;50.38;36.70;;;13.10;70.50;;;;;;5056883;28;20214;-74
2021/03/03 11:17:21;;;;;;;49.45;34.65;;;13.20;70.80;;;;;;5061607;28;20242;-74
2021/03/03 11:19:47;;;;;;;54.13;36.63;;;13.00;72.00;;;;;;5053783;28;20274;-77
2021/03/03 11:22:14;;;;;;;43.22;34.55;;;13.20;71.80;;;;;;5066607;28;20402;-76
2021/03/03 11:24:41;;;;;;;47.42;32.50;;;13.00;72.80;;;;;;5060120;28;20258;-74
2021/03/03 11:27:07;;;;;;;35.65;29.48;;;13.10;71.90;;;;;;5061191;28;20223;-75
2021/03/03 11:29:34;;;;;;;41.05;30.17;;;13.20;72.10;;;;;;5062713;28;20278;-75
2021/03/03 11:32:15;;;;;;;40.58;29.38;;;13.30;70.80;;;;;;5060166;28;20208;-74
2021/03/03 11:34:42;;;;;;;40.50;31.52;;;13.50;69.90;;;;;;5054495;28;20219;-75
2021/03/03 11:37:08;;;;;;;45.10;30.85;;;13.50;69.70;;;;;;5060576;28;20575;-75
2021/03/03 11:39:35;;;;;;;45.90;31.77;;;13.60;69.80;;;;;;5059008;28;20204;-76
2021/03/03 11:42:02;;;;;;;43.17;30.17;;;13.70;69.70;;;;;;5059466;28;20207;-75
2021/03/03 11:44:29;;;;;;;37.15;28.83;;;13.60;70.00;;;;;;5059567;28;20237;-76
2021/03/03 11:46:56;;;;;;;39.17;29.55;;;14.40;69.80;;;;;;5059388;28;20243;-76
2021/03/03 11:49:23;;;;;;;38.30;29.27;;;13.80;68.70;;;;;;5055699;28;20227;-77
2021/03/03 11:51:49;;;;;;;37.60;26.70;;;13.90;67.30;;;;;;5052440;28;20208;-75
2021/03/03 11:54:16;;;;;;;32.42;23.88;;;14.00;65.40;;;;;;5068708;28;20282;-77
2021/03/03 11:56:43;;;;;;;34.47;24.40;;;14.00;63.70;;;;;;5058984;28;20266;-76
2021/03/03 11:59:10;;;;;;;32.13;24.75;;;14.10;61.60;;;;;;5059362;28;20466;-75
2021/03/03 12:01:37;;;;;;;35.45;26.05;;;14.10;60.20;;;;;;5058402;28;20221;-78
2021/03/03 12:04:04;;;;;;;44.40;28.08;;;14.10;61.80;;;;;;5057331;28;20262;-76
2021/03/03 12:06:31;;;;;;;38.03;27.77;;;14.20;62.70;;;;;;5058991;28;20212;-77
2021/03/03 12:08:58;;;;;;;38.83;27.80;;;14.10;64.60;;;;;;5062016;28;20212;-77
2021/03/03 12:11:29;;;;;;;30.83;23.55;;;14.20;64.10;;;;;;5058886;28;20354;-76
2021/03/03 12:13:56;;;;;;;33.20;24.48;;;14.30;61.40;;;;;;5061934;28;20271;-77
2021/03/03 12:16:23;;;;;;;33.15;24.50;;;14.20;61.30;;;;;;5063659;28;20227;-76
2021/03/03 12:18:50;;;;;;;35.78;23.50;;;14.30;60.00;;;;;;5058342;28;20216;-75
2021/03/03 12:21:17;;;;;;;37.15;24.23;;;14.40;59.80;;;;;;5069378;28;20208;-77
2021/03/03 12:23:43;;;;;;;29.85;22.85;;;14.50;59.40;;;;;;5065171;28;20212;-77
2021/03/03 12:26:10;;;;;;;34.70;24.23;;;14.50;59.80;;;;;;5069234;28;20255;-77
2021/03/03 12:28:37;;;;;;;36.03;23.55;;;14.50;60.30;;;;;;5064008;28;20289;-76
2021/03/03 12:31:04;;;;;;;32.67;21.88;;;14.30;59.50;;;;;;5065550;28;20209;-76
2021/03/03 12:33:32;;;;;;;31.33;23.45;;;14.40;59.40;;;;;;5066598;28;20212;-77